Time;durP1;ratioP1;P1;durP2;ratioP2;P2;SDS_P1;SDS_P2;PMS_P1;PMS_P2;Temp;Humidity;BMP_temperature;BMP_pressure;BME280_temperature;BME280_humidity;BME280_pressure;Samples;Min_cycle;Max_cycle;Signal;HPM_P1;HPM_P2
2023/05/23 00:00:59;;;;;;;6.25;4.45;;;;;;;17.48;60.14;99450.75;4290807;33;20100;-85
2023/05/23 00:03:25;;;;;;;10.30;4.78;;;;;;;17.21;60.12;99442.03;4277625;33;20093;-85
2023/05/23 00:05:50;;;;;;;6.82;4.47;;;;;;;17.63;60.15;99454.19;4277333;33;20093;-86
2023/05/23 00:08:16;;;;;;;7.32;4.25;;;;;;;17.40;60.14;99453.91;4265296;33;20356;-85
2023/05/23 00:10:42;;;;;;;5.07;3.72;;;;;;;17.40;60.14;99450.41;4290673;33;20100;-85
2023/05/23 00:13:08;;;;;;;8.27;4.28;;;;;;;17.10;60.12;99445.34;4289399;33;20124;-86
2023/05/23 00:15:36;;;;;;;12.73;4.50;;;;;;;17.08;60.12;99445.44;4277363;33;20447;-85
2023/05/23 00:18:01;;;;;;;5.93;4.30;;;;;;;17.26;60.13;99443.41;4289422;33;20208;-86
2023/05/23 00:20:27;;;;;;;9.70;4.18;;;;;;;17.00;60.11;99449.47;4277303;33;20131;-85
2023/05/23 00:22:53;;;;;;;4.53;3.50;;;;;;;16.92;60.11;99436.84;4277269;33;20119;-85
2023/05/23 00:25:20;;;;;;;7.80;4.20;;;;;;;17.01;60.12;99443.28;4289131;33;20092;-85
2023/05/23 00:27:46;;;;;;;7.93;4.50;;;;;;;16.89;60.11;99450.16;4289409;33;20239;-85
2023/05/23 00:30:11;;;;;;;5.28;3.78;;;;;;;16.91;60.11;99448.28;4288186;33;32830;-85
2023/05/23 00:32:37;;;;;;;5.82;4.00;;;;;;;16.82;60.10;99443.63;4277433;33;20428;-85
2023/05/23 00:35:02;;;;;;;6.40;4.20;;;;;;;17.11;60.12;99434.72;4289110;33;20092;-85
2023/05/23 00:37:28;;;;;;;5.18;3.90;;;;;;;16.85;60.11;99441.62;4288898;33;20096;-85
2023/05/23 00:39:53;;;;;;;7.25;3.78;;;;;;;16.91;60.11;99443.03;4275679;33;20168;-86
2023/05/23 00:42:18;;;;;;;7.53;4.10;;;;;;;17.00;60.12;99445.06;4276943;33;20827;-86
2023/05/23 00:44:44;;;;;;;6.22;3.97;;;;;;;17.08;60.12;99448.06;4290317;33;20474;-87
2023/05/23 00:47:12;;;;;;;5.65;3.42;;;;;;;17.02;60.12;99450.22;4276860;33;20601;-87
2023/05/23 00:49:38;;;;;;;8.85;4.05;;;;;;;16.78;60.11;99444.72;4288845;33;20131;-87
2023/05/23 00:52:03;;;;;;;5.18;3.90;;;;;;;16.77;60.11;99445.66;4272360;33;20124;-87
2023/05/23 00:54:32;;;;;;;7.03;4.03;;;;;;;16.69;60.09;99448.78;4279933;33;20123;-87
2023/05/23 00:56:57;;;;;;;6.90;3.97;;;;;;;16.68;60.09;99443.63;4288989;33;20102;-87
2023/05/23 00:59:23;;;;;;;6.60;3.83;;;;;;;16.83;60.10;99445.31;4276982;33;20474;-87
2023/05/23 01:01:49;;;;;;;9.40;4.55;;;;;;;16.85;60.11;99444.25;4288803;33;20141;-86
2023/05/23 01:04:15;;;;;;;4.40;3.45;;;;;;;16.78;60.11;99447.34;4265042;33;20119;-86
2023/05/23 01:06:41;;;;;;;8.75;4.00;;;;;;;16.70;60.09;99449.63;4277027;33;20132;-86
2023/05/23 01:09:08;;;;;;;11.50;3.95;;;;;;;16.78;60.11;99449.97;4277062;33;20174;-86
2023/05/23 01:11:43;;;;;;;7.72;3.53;;;;;;;16.83;60.10;99448.78;4288920;33;20092;-85
2023/05/23 01:14:14;;;;;;;7.90;3.70;;;;;;;16.62;60.08;99451.84;4276881;33;20447;-87
2023/05/23 01:16:53;;;;;;;5.57;3.50;;;;;;;16.87;60.11;99445.00;4263899;33;20113;-86
2023/05/23 01:19:39;;;;;;;6.68;4.18;;;;;;;16.81;60.10;99437.50;4281794;33;20124;-86
2023/05/23 01:22:09;;;;;;;8.10;3.92;;;;;;;16.80;60.10;99433.19;4288715;33;20168;-86
2023/05/23 01:24:35;;;;;;;;;;;;;;;16.53;60.08;99433.06;4289237;33;20148;-86
2023/05/23 01:27:07;;;;;;;6.12;3.58;;;;;;;16.93;60.11;99432.41;4288557;33;20278;-84
2023/05/23 01:29:34;;;;;;;9.13;4.43;;;;;;;16.82;60.10;99433.94;4289836;33;20100;-86
2023/05/23 01:32:01;;;;;;;5.85;3.72;;;;;;;16.74;60.10;99432.72;4288727;33;20212;-86
2023/05/23 01:34:26;;;;;;;7.32;4.20;;;;;;;16.83;60.10;99429.53;4288667;33;20084;-87
2023/05/23 01:36:55;;;;;;;6.32;4.10;;;;;;;16.78;60.11;99428.94;4265033;33;20495;-87
2023/05/23 01:39:21;;;;;;;6.87;4.37;;;;;;;16.94;60.11;99424.44;4289842;33;20101;-88
2023/05/23 01:41:47;;;;;;;7.20;4.22;;;;;;;16.75;60.09;99424.72;4276964;33;20152;-87
2023/05/23 01:44:13;;;;;;;6.03;4.00;;;;;;;16.87;60.10;99421.34;4288669;33;20080;-87
2023/05/23 01:46:38;;;;;;;9.27;4.28;;;;;;;16.74;60.09;99424.84;4276062;33;27829;-87
2023/05/23 01:49:05;;;;;;;6.20;4.00;;;;;;;16.60;60.09;99420.41;4276533;33;20101;-87
2023/05/23 01:51:31;;;;;;;9.40;3.70;;;;;;;16.48;60.09;99426.41;4279986;33;20111;-87
2023/05/23 01:53:56;;;;;;;7.80;4.53;;;;;;;16.55;60.09;99417.19;4276577;33;20089;-88
2023/05/23 01:56:22;;;;;;;6.22;3.72;;;;;;;16.46;60.08;99413.38;4288469;33;20176;-87
2023/05/23 01:58:47;;;;;;;8.57;4.87;;;;;;;16.39;60.07;99416.47;4275707;33;28479;-87
2023/05/23 02:01:13;;;;;;;6.05;4.12;;;;;;;16.31;60.07;99426.59;4289929;33;20403;-85
2023/05/23 02:03:38;;;;;;;6.20;3.90;;;;;;;16.32;60.08;99412.50;4275672;33;20482;-86
2023/05/23 02:06:03;;;;;;;6.25;4.28;;;;;;;16.05;60.06;99415.88;4288483;33;20116;-86
2023/05/23 02:08:29;;;;;;;8.82;4.18;;;;;;;16.17;60.07;99409.91;4289926;33;20123;-86
2023/05/23 02:10:54;;;;;;;6.65;4.30;;;;;;;16.21;60.07;99408.78;4289599;33;20132;-86
2023/05/23 02:13:20;;;;;;;7.87;3.97;;;;;;;16.13;60.07;99407.56;4288319;33;20080;-86
2023/05/23 02:15:45;;;;;;;5.80;4.30;;;;;;;16.34;60.08;99411.50;4289817;33;20466;-86
2023/05/23 02:18:12;;;;;;;6.05;4.18;;;;;;;16.08;60.06;99414.84;4288156;33;20140;-86
2023/05/23 02:20:37;;;;;;;8.00;4.70;;;;;;;16.09;60.07;99414.78;4279060;33;20114;-86
2023/05/23 02:23:02;;;;;;;12.90;4.60;;;;;;;15.90;60.05;99414.19;4289700;33;20355;-86
2023/05/23 02:25:28;;;;;;;8.35;4.53;;;;;;;16.02;60.06;99415.22;4273991;33;20137;-86
2023/05/23 02:27:53;;;;;;;6.35;4.85;;;;;;;16.22;60.06;99404.38;4285029;33;20185;-87
2023/05/23 02:30:19;;;;;;;7.35;4.55;;;;;;;16.04;60.06;99414.19;4289892;33;20167;-85
2023/05/23 02:32:45;;;;;;;8.90;4.65;;;;;;;15.91;60.05;99410.62;4289866;33;20072;-84
2023/05/23 02:35:10;;;;;;;8.88;4.68;;;;;;;15.86;60.06;99410.06;4289533;33;20132;-85
2023/05/23 02:37:36;;;;;;;9.00;4.90;;;;;;;16.00;60.05;99407.44;4288192;33;20489;-84
2023/05/23 02:40:02;;;;;;;8.35;4.82;;;;;;;16.21;60.07;99407.94;4288898;33;30148;-85
2023/05/23 02:42:27;;;;;;;8.70;4.30;;;;;;;16.21;60.07;99400.91;4289548;33;20396;-85
2023/05/23 02:44:53;;;;;;;5.65;4.35;;;;;;;15.99;60.05;99404.91;4288110;33;20171;-85
2023/05/23 02:47:18;;;;;;;7.55;4.37;;;;;;;15.97;60.06;99402.38;4288244;33;20411;-85
2023/05/23 02:49:43;;;;;;;7.78;4.78;;;;;;;15.94;60.06;99407.81;4288002;33;23446;-85
2023/05/23 02:52:09;;;;;;;7.53;4.07;;;;;;;15.85;60.04;99408.31;4287866;33;20152;-86
2023/05/23 02:54:34;;;;;;;7.57;4.40;;;;;;;15.74;60.04;99402.88;4288337;33;20108;-85
2023/05/23 02:57:00;;;;;;;8.98;4.60;;;;;;;15.75;60.04;99407.19;4289490;33;20114;-85
2023/05/23 02:59:25;;;;;;;10.82;5.03;;;;;;;15.77;60.05;99400.06;4276329;33;20088;-85
2023/05/23 03:01:51;;;;;;;6.62;4.43;;;;;;;15.76;60.04;99404.47;4289630;33;20399;-86
2023/05/23 03:04:17;;;;;;;7.37;4.97;;;;;;;15.88;60.06;99402.94;4288070;33;20127;-86
2023/05/23 03:06:43;;;;;;;6.15;4.30;;;;;;;15.87;60.05;99396.84;4289466;33;20123;-85
2023/05/23 03:09:08;;;;;;;7.28;4.70;;;;;;;15.95;60.06;99405.09;4287908;33;20156;-86
2023/05/23 03:11:34;;;;;;;7.50;4.43;;;;;;;15.98;60.05;99401.44;4289513;33;20124;-86
2023/05/23 03:13:59;;;;;;;6.78;4.37;;;;;;;15.84;60.04;99401.41;4289128;33;25774;-85
2023/05/23 03:16:24;;;;;;;8.57;4.85;;;;;;;15.87;60.06;99406.50;4289583;33;20127;-86
2023/05/23 03:18:50;;;;;;;9.77;4.82;;;;;;;15.90;60.05;99408.94;4289965;33;20137;-86
2023/05/23 03:21:15;;;;;;;8.68;4.97;;;;;;;15.99;60.05;99397.03;4289816;33;20160;-86
2023/05/23 03:23:41;;;;;;;7.22;4.53;;;;;;;16.03;60.06;99403.78;4289790;33;20137;-85
2023/05/23 03:26:06;;;;;;;7.40;4.72;;;;;;;15.93;60.05;99406.13;4290065;33;20122;-84
2023/05/23 03:28:32;;;;;;;5.50;4.25;;;;;;;16.05;60.06;99409.78;4289824;33;20138;-85
2023/05/23 03:30:57;;;;;;;8.88;4.28;;;;;;;16.05;60.06;99407.16;4290216;33;20116;-85
2023/05/23 03:33:23;;;;;;;8.30;4.35;;;;;;;16.01;60.05;99408.28;4290155;33;20757;-83
2023/05/23 03:35:49;;;;;;;10.55;4.72;;;;;;;16.05;60.06;99401.91;4290193;33;20393;-84
2023/05/23 03:38:14;;;;;;;8.90;4.37;;;;;;;16.20;60.07;99399.22;4289599;33;20494;-84
2023/05/23 03:40:40;;;;;;;8.63;4.68;;;;;;;16.10;60.06;99402.50;4291087;33;20081;-85
2023/05/23 03:43:05;;;;;;;11.12;4.37;;;;;;;16.31;60.07;99389.81;4289718;33;20108;-84
2023/05/23 03:45:31;;;;;;;8.05;4.57;;;;;;;16.23;60.08;99396.38;4288663;33;20101;-84
2023/05/23 03:47:57;;;;;;;7.55;4.78;;;;;;;16.41;60.08;99397.06;4290571;33;20128;-84
2023/05/23 03:50:23;;;;;;;10.13;4.80;;;;;;;16.73;60.10;99399.50;4288066;33;20463;-84
2023/05/23 03:52:48;;;;;;;8.85;4.75;;;;;;;16.61;60.08;99398.44;4286879;33;20184;-84
2023/05/23 03:55:14;;;;;;;9.30;5.00;;;;;;;16.70;60.10;99397.91;4288155;33;20113;-85
2023/05/23 03:57:39;;;;;;;9.60;5.60;;;;;;;16.50;60.08;99398.25;4287796;33;20156;-84
2023/05/23 04:00:10;;;;;;;7.70;4.78;;;;;;;16.47;60.08;99399.28;4274870;33;20101;-84
2023/05/23 04:02:36;;;;;;;6.10;4.15;;;;;;;16.60;60.08;99391.50;4288342;33;20109;-85
2023/05/23 04:05:02;;;;;;;10.90;4.47;;;;;;;16.40;60.08;99399.78;4290709;33;20161;-86
2023/05/23 04:07:27;;;;;;;6.47;4.80;;;;;;;16.58;60.09;99396.88;4290416;33;20101;-85
2023/05/23 04:09:52;;;;;;;7.60;4.60;;;;;;;16.68;60.09;99397.16;4288805;33;29315;-84
2023/05/23 04:12:20;;;;;;;5.25;4.07;;;;;;;16.67;60.09;99400.72;4289171;33;20113;-86
2023/05/23 04:14:46;;;;;;;7.70;4.35;;;;;;;16.79;60.10;99402.56;4277865;33;20478;-86
2023/05/23 04:17:13;;;;;;;6.75;4.53;;;;;;;17.01;60.12;99398.56;4290609;33;20164;-86
2023/05/23 04:19:38;;;;;;;6.50;4.10;;;;;;;17.02;60.11;99397.63;4289177;33;20364;-85
2023/05/23 04:22:04;;;;;;;9.90;4.22;;;;;;;17.21;60.12;99394.66;4288882;33;20173;-85
2023/05/23 04:24:29;;;;;;;8.98;4.72;;;;;;;17.14;60.11;99394.22;4289360;33;20105;-85
2023/05/23 04:26:55;;;;;;;7.93;3.92;;;;;;;17.45;60.13;99388.66;4289527;33;26130;-84
2023/05/23 04:29:20;;;;;;;6.40;4.32;;;;;;;17.19;60.12;99386.88;4289111;33;20475;-85
2023/05/23 04:31:46;;;;;;;9.57;4.50;;;;;;;17.15;60.12;99388.03;4277530;33;20104;-85
2023/05/23 04:34:11;;;;;;;7.30;4.55;;;;;;;17.17;60.13;99389.63;4290097;33;24476;-85
2023/05/23 04:36:37;;;;;;;7.12;4.35;;;;;;;17.38;60.12;99386.53;4289373;33;20097;-85
2023/05/23 04:39:04;;;;;;;6.50;4.43;;;;;;;17.55;60.13;99385.44;4277463;33;20399;-85
2023/05/23 04:41:30;;;;;;;7.25;4.47;;;;;;;17.87;60.16;99389.41;4277381;33;20125;-86
2023/05/23 04:43:57;;;;;;;7.12;4.55;;;;;;;17.83;60.15;99390.56;4290617;33;20123;-85
2023/05/23 04:46:25;;;;;;;6.87;4.05;;;;;;;18.03;60.17;99397.13;4290515;33;20119;-85
2023/05/23 04:48:52;;;;;;;7.87;4.35;;;;;;;18.16;60.18;99390.03;4289287;33;20159;-86
2023/05/23 04:51:18;;;;;;;13.40;4.35;;;;;;;18.34;60.18;99387.94;4290287;33;20802;-85
2023/05/23 04:53:43;;;;;;;8.98;4.50;;;;;;;18.40;60.19;99393.59;4289303;33;20861;-86
2023/05/23 04:56:08;;;;;;;9.50;4.37;;;;;;;18.66;60.19;99388.31;4289458;33;20105;-86
2023/05/23 04:58:34;;;;;;;11.15;4.87;;;;;;;18.79;60.21;99388.31;4277099;33;20116;-85
2023/05/23 05:01:00;;;;;;;6.60;4.10;;;;;;;18.93;60.22;99386.38;4290436;33;20100;-85
2023/05/23 05:03:25;;;;;;;8.57;4.93;;;;;;;18.88;60.21;99390.28;4290205;33;20517;-85
2023/05/23 05:05:51;;;;;;;6.60;4.00;;;;;;;19.05;60.21;99382.00;4290294;33;20152;-85
2023/05/23 05:08:18;;;;;;;7.78;4.15;;;;;;;19.05;60.21;99382.00;4288684;33;20398;-84
2023/05/23 05:10:44;;;;;;;6.65;4.10;;;;;;;19.29;60.22;99382.84;4289303;33;20101;-86
2023/05/23 05:13:09;;;;;;;7.03;4.53;;;;;;;19.51;60.24;99375.97;4290421;33;20164;-86
2023/05/23 05:15:35;;;;;;;9.05;4.72;;;;;;;19.60;60.25;99386.72;4289109;33;20375;-86
2023/05/23 05:18:00;;;;;;;6.82;4.15;;;;;;;19.92;60.26;99373.72;4288199;33;30520;-86
2023/05/23 05:20:25;;;;;;;6.90;4.12;;;;;;;19.82;60.26;99378.00;4288822;33;20101;-85
2023/05/23 05:22:56;;;;;;;6.43;3.87;;;;;;;20.23;60.29;99371.34;4290460;33;20109;-86
2023/05/23 05:25:22;;;;;;;6.82;4.72;;;;;;;20.26;60.29;99375.56;4288549;33;20123;-86
2023/05/23 05:27:47;;;;;;;7.10;4.70;;;;;;;20.41;60.29;99369.94;4288829;33;20447;-86
2023/05/23 05:30:12;;;;;;;8.10;3.70;;;;;;;20.46;60.29;99373.06;4288699;33;20160;-86
2023/05/23 05:32:38;;;;;;;5.68;4.15;;;;;;;20.74;60.31;99360.28;4276920;33;20108;-86
2023/05/23 05:35:04;;;;;;;9.88;4.75;;;;;;;20.70;60.30;99369.44;4290164;33;20188;-86
2023/05/23 05:37:29;;;;;;;7.55;4.35;;;;;;;20.92;60.31;99373.84;4288744;33;20119;-87
2023/05/23 05:39:55;;;;;;;9.13;4.50;;;;;;;20.98;60.32;99371.56;4288788;33;20105;-86
2023/05/23 05:42:21;;;;;;;5.87;4.22;;;;;;;21.15;60.32;99371.03;4288823;33;20870;-85
2023/05/23 05:44:46;;;;;;;6.20;4.20;;;;;;;21.28;60.33;99377.97;4289856;33;20383;-87
2023/05/23 05:47:12;;;;;;;6.50;4.43;;;;;;;21.36;60.33;99359.69;4288865;33;20092;-85
2023/05/23 05:49:37;;;;;;;9.18;5.60;;;;;;;21.54;60.34;99371.41;4288564;33;20175;-85
2023/05/23 05:52:04;;;;;;;11.35;4.53;;;;;;;21.58;60.35;99370.16;4289984;33;20112;-85
2023/05/23 05:54:29;;;;;;;9.13;4.93;;;;;;;21.61;60.35;99369.91;4288844;33;20475;-85
2023/05/23 05:56:54;;;;;;;8.85;4.50;;;;;;;21.69;60.35;99372.75;4288886;33;20080;-85
2023/05/23 05:59:20;;;;;;;11.98;4.50;;;;;;;21.87;60.37;99373.00;4289457;33;22250;-84
2023/05/23 06:01:45;;;;;;;5.87;4.10;;;;;;;21.99;60.37;99373.78;4288642;33;20148;-85
2023/05/23 06:04:11;;;;;;;7.68;3.92;;;;;;;22.26;60.38;99365.31;4276804;33;20089;-85
2023/05/23 06:06:36;;;;;;;9.13;5.00;;;;;;;22.20;60.39;99366.66;4288677;33;20107;-84
2023/05/23 06:09:02;;;;;;;11.25;4.18;;;;;;;22.45;60.39;99370.69;4288201;33;30806;-85
2023/05/23 06:11:27;;;;;;;9.30;4.18;;;;;;;22.40;60.39;99362.28;4276768;33;20097;-85
2023/05/23 06:14:34;;;;;;;6.12;4.30;;;;;;;22.74;60.42;99360.19;4289873;33;20146;-86
2023/05/23 06:17:00;;;;;;;6.85;4.10;;;;;;;22.95;60.42;99353.00;4276530;33;20115;-86
2023/05/23 06:19:25;;;;;;;8.93;4.28;;;;;;;22.68;60.41;99366.00;4288197;33;20398;-85
2023/05/23 06:21:51;;;;;;;7.22;3.70;;;;;;;22.76;60.41;99354.75;4290104;33;20150;-85
2023/05/23 06:24:17;;;;;;;8.30;4.12;;;;;;;22.86;60.42;99361.78;4288667;33;20470;-85
2023/05/23 06:26:42;;;;;;;12.65;4.37;;;;;;;23.04;60.43;99353.97;4288858;33;20124;-85
2023/05/23 06:29:07;;;;;;;8.23;3.97;;;;;;;23.24;60.44;99353.03;4290081;33;20093;-85
2023/05/23 06:31:33;;;;;;;6.97;4.35;;;;;;;23.31;60.44;99352.47;4288988;33;20143;-85
2023/05/23 06:33:58;;;;;;;6.95;4.10;;;;;;;23.37;60.45;99350.06;4290068;33;20097;-85
2023/05/23 06:36:24;;;;;;;8.63;4.03;;;;;;;23.60;60.45;99355.13;4288714;33;20418;-85
2023/05/23 06:38:49;;;;;;;5.65;3.40;;;;;;;23.63;60.46;99357.50;4288728;33;20105;-85
2023/05/23 06:41:15;;;;;;;6.12;3.50;;;;;;;24.01;60.48;99349.47;4288682;33;20164;-86
2023/05/23 06:43:40;;;;;;;8.93;4.00;;;;;;;24.30;60.50;99348.56;4289361;33;26352;-87
2023/05/23 06:46:06;;;;;;;7.22;3.75;;;;;;;24.43;60.49;99354.41;4287697;33;20084;-85
2023/05/23 06:48:31;;;;;;;13.35;4.28;;;;;;;24.67;60.50;99341.38;4288735;33;20470;-86
2023/05/23 06:50:56;;;;;;;6.62;3.75;;;;;;;24.95;60.53;99346.69;4275365;33;32076;-87
2023/05/23 06:53:22;;;;;;;7.03;4.25;;;;;;;25.15;60.54;99340.25;4289561;33;20128;-84
2023/05/23 06:55:47;;;;;;;6.40;3.95;;;;;;;25.27;60.54;99333.72;4287715;33;29546;-85
2023/05/23 06:58:13;;;;;;;8.07;3.60;;;;;;;25.43;60.55;99337.50;4289584;33;20464;-86
2023/05/23 07:00:38;;;;;;;11.50;4.43;;;;;;;25.61;60.56;99341.00;4288388;33;20109;-85
2023/05/23 07:03:05;;;;;;;8.73;3.75;;;;;;;25.48;60.56;99340.53;4288906;33;28105;-85
2023/05/23 07:05:32;;;;;;;6.22;3.78;;;;;;;25.33;60.55;99334.94;4288151;33;20097;-84
2023/05/23 07:07:57;;;;;;;12.45;3.90;;;;;;;25.38;60.54;99337.97;4276628;33;20167;-85
2023/05/23 07:10:22;;;;;;;8.35;3.97;;;;;;;25.72;60.57;99339.94;4289530;33;20501;-85
2023/05/23 07:12:48;;;;;;;6.85;3.95;;;;;;;25.78;60.56;99333.97;4288333;33;20140;-85
2023/05/23 07:15:15;;;;;;;6.12;3.97;;;;;;;25.92;60.57;99328.06;4289382;33;20120;-84
2023/05/23 07:17:40;;;;;;;7.70;3.70;;;;;;;26.03;60.58;99329.66;4288134;33;20180;-85
2023/05/23 07:20:07;;;;;;;8.30;3.95;;;;;;;26.25;60.60;99329.09;4288134;33;20483;-84
2023/05/23 07:22:32;;;;;;;7.95;3.70;;;;;;;26.35;60.60;99321.00;4289649;33;20098;-85
2023/05/23 07:24:57;;;;;;;8.60;3.75;;;;;;;26.47;60.60;99319.72;4276149;33;20412;-85
2023/05/23 07:27:23;;;;;;;12.90;4.35;;;;;;;26.69;60.62;99320.97;4287954;33;20139;-86
2023/05/23 07:29:49;;;;;;;11.75;4.20;;;;;;;26.85;60.62;99311.16;4286919;33;33236;-86
2023/05/23 07:32:15;;;;;;;8.73;3.72;;;;;;;26.91;60.63;99315.00;4275771;33;20100;-84
2023/05/23 07:34:40;;;;;;;7.60;3.85;;;;;;;26.93;60.63;99310.34;4288776;33;20116;-85
2023/05/23 07:37:06;;;;;;;10.68;3.97;;;;;;;27.13;60.64;99316.25;4287797;33;20108;-85
2023/05/23 07:39:31;;;;;;;7.72;4.75;;;;;;;27.13;60.64;99319.75;4288521;33;22615;-84
2023/05/23 07:41:57;;;;;;;8.63;3.95;;;;;;;27.25;60.64;99311.44;4287692;33;20140;-85
2023/05/23 07:44:22;;;;;;;9.80;4.28;;;;;;;27.29;60.65;99315.44;4288671;33;21836;-86
2023/05/23 07:46:47;;;;;;;7.78;4.40;;;;;;;27.34;60.65;99316.59;4287199;33;23281;-85
2023/05/23 07:49:13;;;;;;;8.77;4.05;;;;;;;27.57;60.66;99310.56;4287519;33;20109;-85
2023/05/23 07:51:38;;;;;;;10.57;4.18;;;;;;;27.51;60.67;99312.09;4288379;33;29444;-83
2023/05/23 07:54:04;;;;;;;13.80;4.80;;;;;;;27.72;60.67;99312.44;4274969;33;34400;-85
2023/05/23 07:56:30;;;;;;;13.90;3.92;;;;;;;27.79;60.67;99304.56;4287963;33;20105;-86
2023/05/23 07:58:55;;;;;;;8.90;4.45;;;;;;;27.88;60.67;99306.22;4287869;33;20122;-86
2023/05/23 08:01:20;;;;;;;8.25;4.00;;;;;;;27.97;60.68;99296.34;4287459;33;20085;-84
2023/05/23 08:03:46;;;;;;;5.90;4.20;;;;;;;28.26;60.69;99296.59;4290818;33;20124;-83
2023/05/23 08:06:11;;;;;;;7.00;4.10;;;;;;;28.30;60.70;99303.28;4288721;33;28092;-84
2023/05/23 08:08:37;;;;;;;10.18;4.12;;;;;;;28.40;60.71;99297.72;4288992;33;20093;-84
2023/05/23 08:11:02;;;;;;;9.30;4.35;;;;;;;28.54;60.71;99298.81;4288679;33;26047;-85
2023/05/23 08:13:33;;;;;;;7.90;4.53;;;;;;;28.52;60.71;99293.63;4290417;33;20143;-84
2023/05/23 08:15:58;;;;;;;5.90;4.15;;;;;;;28.59;60.71;99291.91;4289281;33;20145;-84
2023/05/23 08:18:24;;;;;;;9.95;4.55;;;;;;;28.54;60.72;99288.09;4288766;33;23516;-85
2023/05/23 08:20:49;;;;;;;8.25;5.15;;;;;;;28.71;60.73;99297.72;4289552;33;20152;-84
2023/05/23 08:23:16;;;;;;;7.57;4.37;;;;;;;28.98;60.73;99297.25;4290877;33;20084;-85
2023/05/23 08:25:42;;;;;;;10.15;4.87;;;;;;;29.13;60.74;99304.53;4277891;33;20168;-85
2023/05/23 08:28:07;;;;;;;10.25;4.68;;;;;;;29.24;60.75;99296.88;4277299;33;20116;-84
2023/05/23 08:30:33;;;;;;;6.78;4.05;;;;;;;29.19;60.75;99293.09;4290131;33;20112;-84
2023/05/23 08:32:59;;;;;;;11.65;4.60;;;;;;;29.52;60.76;99299.87;4288851;33;25677;-84
2023/05/23 08:35:25;;;;;;;5.72;4.12;;;;;;;29.70;60.77;99301.38;4290269;33;20112;-84
2023/05/23 08:37:50;;;;;;;8.18;4.80;;;;;;;29.82;60.78;99303.44;4289106;33;20463;-84
2023/05/23 08:40:20;;;;;;;8.82;4.68;;;;;;;29.94;60.78;99295.75;4289159;33;20144;-84
2023/05/23 08:42:48;;;;;;;7.12;4.68;;;;;;;30.03;60.79;99294.69;4277570;33;20536;-85
2023/05/23 08:45:14;;;;;;;8.52;4.70;;;;;;;30.08;60.79;99294.97;4289124;33;20108;-86
2023/05/23 08:47:46;;;;;;;7.72;4.32;;;;;;;30.20;60.81;99293.47;4289380;33;20390;-84
2023/05/23 08:50:15;;;;;;;10.95;5.50;;;;;;;30.45;60.81;99295.88;4290237;33;20105;-85
2023/05/23 08:52:49;;;;;;;10.45;4.70;;;;;;;30.54;60.82;99282.16;4289180;33;20119;-85
2023/05/23 08:55:14;;;;;;;8.48;5.50;;;;;;;30.64;60.82;99289.94;4289732;33;20521;-84
2023/05/23 08:57:42;;;;;;;7.35;4.82;;;;;;;30.75;60.82;99289.44;4288675;33;20113;-86
2023/05/23 09:00:13;;;;;;;6.00;4.55;;;;;;;30.66;60.82;99290.56;4288540;33;20126;-86
2023/05/23 09:02:39;;;;;;;8.32;4.50;;;;;;;30.97;60.84;99292.13;4277372;33;20443;-85
2023/05/23 09:05:04;;;;;;;10.23;4.10;;;;;;;31.20;60.85;99295.50;4288643;33;20160;-86
2023/05/23 09:07:30;;;;;;;5.55;4.30;;;;;;;31.38;60.86;99286.97;4288236;33;20129;-86
2023/05/23 09:09:55;;;;;;;8.30;4.60;;;;;;;31.33;60.86;99287.56;4288860;33;20104;-86
2023/05/23 09:12:21;;;;;;;6.60;4.62;;;;;;;31.23;60.85;99283.53;4288209;33;20187;-87
2023/05/23 09:14:47;;;;;;;8.63;3.60;;;;;;;31.52;60.86;99298.69;4288833;33;20156;-85
2023/05/23 09:17:17;;;;;;;11.68;4.60;;;;;;;31.50;60.87;99287.28;4288676;33;20135;-83
2023/05/23 09:19:43;;;;;;;7.30;4.50;;;;;;;31.67;60.88;99286.78;4289028;33;20096;-84
2023/05/23 09:22:08;;;;;;;5.68;4.80;;;;;;;31.66;60.87;99290.50;4288758;33;20136;-83
2023/05/23 09:24:35;;;;;;;9.57;4.53;;;;;;;31.68;60.88;99290.31;4289701;33;20199;-84
2023/05/23 09:27:00;;;;;;;7.70;4.40;;;;;;;31.85;60.89;99283.63;4288837;33;20089;-85
2023/05/23 09:29:26;;;;;;;5.47;4.43;;;;;;;31.89;60.89;99284.91;4289981;33;20136;-84
2023/05/23 09:31:51;;;;;;;4.82;4.12;;;;;;;31.84;60.88;99281.97;4288483;33;20159;-85
2023/05/23 09:34:17;;;;;;;6.25;5.05;;;;;;;32.03;60.89;99280.44;4288434;33;20131;-86
2023/05/23 09:36:43;;;;;;;8.27;5.35;;;;;;;32.13;60.90;99280.91;4289494;33;20100;-84
2023/05/23 09:39:09;;;;;;;5.68;4.90;;;;;;;32.28;60.90;99286.19;4288341;33;20088;-85
2023/05/23 09:41:34;;;;;;;7.25;5.32;;;;;;;32.29;60.90;99290.53;4288414;33;20096;-84
2023/05/23 09:44:04;;;;;;;10.27;5.37;;;;;;;32.57;60.92;99287.75;4289750;33;20128;-85
2023/05/23 09:46:29;;;;;;;10.27;5.97;;;;;;;32.55;60.92;99281.75;4290154;33;20465;-85
2023/05/23 09:48:55;;;;;;;11.20;5.85;;;;;;;32.37;60.92;99282.28;4288862;33;20136;-86
2023/05/23 09:51:21;;;;;;;6.82;5.35;;;;;;;32.27;60.92;99271.06;4288498;33;20168;-84
2023/05/23 09:53:47;;;;;;;8.15;6.15;;;;;;;32.59;60.93;99275.75;4290088;33;20156;-86
2023/05/23 09:56:14;;;;;;;8.15;5.45;;;;;;;32.78;60.94;99276.00;4288478;33;20177;-86
2023/05/23 09:58:39;;;;;;;7.05;6.18;;;;;;;32.90;60.94;99275.25;4287950;33;20110;-85
2023/05/23 10:01:06;;;;;;;7.50;5.47;;;;;;;32.99;60.93;99277.75;4276000;33;20144;-85
2023/05/23 10:03:47;;;;;;;6.87;5.20;;;;;;;32.95;60.94;99269.25;4276991;33;20176;-84
2023/05/23 10:06:41;;;;;;;10.25;5.65;;;;;;;33.23;60.96;99266.34;4276005;33;20121;-85
2023/05/23 10:09:10;;;;;;;10.88;4.68;;;;;;;33.07;60.94;99272.97;4275922;33;20092;-85
2023/05/23 10:11:36;;;;;;;7.35;4.72;;;;;;;32.80;60.93;99265.88;4288507;33;20364;-84
2023/05/23 10:14:04;;;;;;;8.02;4.85;;;;;;;32.55;60.92;99266.41;4288477;33;20130;-85
2023/05/23 10:16:32;;;;;;;7.37;4.82;;;;;;;32.71;60.93;99265.22;4288316;33;20475;-83
2023/05/23 10:19:03;;;;;;;5.40;4.28;;;;;;;33.03;60.95;99263.63;4288609;33;20478;-84
2023/05/23 10:21:31;;;;;;;6.65;4.32;;;;;;;33.41;60.97;99263.91;4289897;33;20122;-83
2023/05/23 10:23:58;;;;;;;13.10;4.68;;;;;;;33.58;60.98;99259.72;4287771;33;20105;-85
2023/05/23 10:26:23;;;;;;;7.90;4.90;;;;;;;33.78;60.98;99254.28;4288688;33;20113;-85
2023/05/23 10:28:49;;;;;;;6.25;4.62;;;;;;;33.77;60.98;99247.25;4276527;33;20390;-85
2023/05/23 10:31:15;;;;;;;7.30;4.43;;;;;;;33.92;60.99;99249.75;4288661;33;20394;-84
2023/05/23 10:33:42;;;;;;;7.87;4.85;;;;;;;33.94;61.00;99247.66;4288715;33;20124;-86
2023/05/23 10:36:12;;;;;;;6.20;4.07;;;;;;;34.10;61.00;99240.97;4276756;33;20131;-84
2023/05/23 10:38:45;;;;;;;5.62;4.50;;;;;;;34.17;61.00;99239.87;4288835;33;20163;-86
2023/05/23 10:41:44;;;;;;;10.68;4.70;;;;;;;34.35;61.01;99236.53;4288619;33;20089;-85
2023/05/23 10:44:15;;;;;;;5.37;4.35;;;;;;;34.57;61.03;99238.91;4288036;33;20109;-86
2023/05/23 10:46:56;;;;;;;10.00;4.32;;;;;;;34.57;61.03;99237.03;4288259;33;20161;-85
2023/05/23 10:49:29;;;;;;;7.18;4.70;;;;;;;34.52;61.02;99227.91;4287884;33;20093;-85
2023/05/23 10:51:55;;;;;;;7.65;5.18;;;;;;;34.37;61.02;99234.44;4276898;33;20104;-84
2023/05/23 10:54:20;;;;;;;6.03;5.00;;;;;;;34.28;61.00;99243.78;4288366;33;20109;-85
2023/05/23 10:56:45;;;;;;;7.82;4.82;;;;;;;34.24;61.01;99236.31;4288180;33;20116;-84
2023/05/23 10:59:21;;;;;;;6.45;4.60;;;;;;;34.06;61.01;99237.00;4288138;33;20096;-83
2023/05/23 11:01:49;;;;;;;6.20;4.57;;;;;;;33.88;60.99;99229.59;4288258;33;20081;-84
2023/05/23 11:04:23;;;;;;;7.90;5.15;;;;;;;33.66;60.98;99229.00;4287882;33;20105;-85
2023/05/23 11:06:49;;;;;;;7.30;4.60;;;;;;;33.60;60.98;99229.00;4287119;33;20163;-89
2023/05/23 11:09:19;;;;;;;8.05;5.28;;;;;;;33.61;60.98;99236.06;4279205;33;20088;-87
2023/05/23 11:11:53;;;;;;;8.75;4.78;;;;;;;33.55;60.99;99226.94;4285796;33;20085;-85
2023/05/23 11:14:19;;;;;;;7.53;4.15;;;;;;;33.68;60.98;99221.53;4275200;33;20494;-83
2023/05/23 11:16:48;;;;;;;5.00;3.40;;;;;;;33.67;60.98;99224.44;4275352;33;20106;-82
2023/05/23 11:19:24;;;;;;;9.45;4.20;;;;;;;33.90;60.99;99213.19;4285541;33;20096;-83
2023/05/23 11:21:49;;;;;;;4.25;3.60;;;;;;;33.76;60.99;99207.78;4280720;33;20093;-83
2023/05/23 11:24:16;;;;;;;8.33;4.23;;;;;;;33.82;60.99;99209.63;4289317;33;20097;-83
2023/05/23 11:26:59;;;;;;;4.87;3.97;;;;;;;33.93;61.00;99205.50;4289499;33;20092;-83
2023/05/23 11:29:27;;;;;;;6.47;3.87;;;;;;;34.06;61.01;99210.00;4276178;33;20084;-83